Time;durP1;ratioP1;P1;durP2;ratioP2;P2;SDS_P1;SDS_P2;PMS_P1;PMS_P2;Temp;Humidity;BMP_temperature;BMP_pressure;BME280_temperature;BME280_humidity;BME280_pressure;Samples;Min_cycle;Max_cycle;Signal;HPM_P1;HPM_P2
2023/09/10 11:19:23;;;;;;;;;;;13.70;67.10;;;;;;6296783;22;21297;-68
2023/09/10 11:21:57;;;;;;;6.63;2.70;;;13.60;67.50;;;;;;6303501;22;19934;-68
2023/09/10 11:24:25;;;;;;;6.18;2.55;;;13.60;67.60;;;;;;6301040;22;20110;-71
2023/09/10 11:27:02;;;;;;;7.53;3.15;;;13.50;68.20;;;;;;6276261;22;20000;-72
2023/09/10 11:29:29;;;;;;;6.72;2.97;;;13.50;68.50;;;;;;6253336;22;20011;-70
2023/09/10 11:31:57;;;;;;;7.93;2.83;;;13.50;68.80;;;;;;6275637;22;20322;-69
2023/09/10 11:34:27;;;;;;;7.22;3.20;;;13.50;68.40;;;;;;6303959;22;20011;-70
2023/09/10 11:37:05;;;;;;;10.18;3.05;;;13.40;68.20;;;;;;6303761;22;20003;-71
2023/09/10 11:39:34;;;;;;;4.97;2.40;;;13.50;68.20;;;;;;6303045;22;20440;-70
2023/09/10 11:42:02;;;;;;;8.05;2.70;;;13.40;68.10;;;;;;6276310;22;20067;-70
2023/09/10 11:44:29;;;;;;;8.82;2.65;;;13.40;67.90;;;;;;6302806;22;20007;-70
2023/09/10 11:46:57;;;;;;;6.93;2.67;;;13.40;67.90;;;;;;6303187;22;19996;-69
2023/09/10 11:49:24;;;;;;;8.77;3.67;;;13.40;67.80;;;;;;6303292;22;20323;-69
2023/09/10 11:51:53;;;;;;;5.80;3.60;;;13.40;68.00;;;;;;6304851;22;20430;-70
2023/09/10 11:54:20;;;;;;;9.73;3.28;;;13.30;68.10;;;;;;6279402;22;20448;-72
2023/09/10 11:56:52;;;;;;;7.47;3.75;;;13.30;68.00;;;;;;6279388;22;20003;-69
2023/09/10 11:59:23;;;;;;;7.75;3.95;;;13.30;68.20;;;;;;6305703;22;20016;-70
2023/09/10 12:01:52;;;;;;;7.47;3.60;;;13.20;68.40;;;;;;6306113;22;20045;-70
2023/09/10 12:04:20;;;;;;;8.00;3.70;;;13.30;68.60;;;;;;6305949;22;20007;-70
2023/09/10 12:06:48;;;;;;;7.45;2.95;;;13.20;68.80;;;;;;6306166;22;20335;-70
2023/09/10 12:09:18;;;;;;;9.60;3.78;;;13.20;68.80;;;;;;6305713;22;20018;-70
2023/09/10 12:11:45;;;;;;;9.48;3.45;;;13.20;68.80;;;;;;6307202;22;20003;-70
2023/09/10 12:14:13;;;;;;;6.85;3.17;;;13.20;68.90;;;;;;6279324;22;19999;-70
2023/09/10 12:16:40;;;;;;;7.72;3.60;;;13.20;69.20;;;;;;6254003;22;20004;-70
2023/09/10 12:19:08;;;;;;;10.00;4.00;;;13.10;69.40;;;;;;6279742;22;20011;-70
2023/09/10 12:21:35;;;;;;;7.18;3.50;;;13.10;69.60;;;;;;6279708;22;20023;-70
2023/09/10 12:24:02;;;;;;;8.90;3.75;;;13.00;70.10;;;;;;6306006;22;19991;-70
2023/09/10 12:26:29;;;;;;;9.20;3.53;;;12.90;70.40;;;;;;6306160;22;20030;-70
2023/09/10 12:28:56;;;;;;;8.10;3.50;;;12.90;70.20;;;;;;6306404;22;20026;-70
2023/09/10 12:31:24;;;;;;;11.38;3.72;;;12.90;70.60;;;;;;6254424;22;20003;-71
2023/09/10 12:33:51;;;;;;;7.88;3.75;;;12.80;70.80;;;;;;6279374;22;19999;-70
2023/09/10 12:36:18;;;;;;;9.15;3.90;;;12.80;71.30;;;;;;6279707;22;20015;-70
2023/09/10 12:38:46;;;;;;;9.45;3.90;;;12.70;71.20;;;;;;6306370;22;20000;-71
2023/09/10 12:41:16;;;;;;;8.60;3.65;;;12.70;71.50;;;;;;6306445;22;19999;-71
2023/09/10 12:43:44;;;;;;;8.18;3.80;;;12.70;71.70;;;;;;6254149;22;20003;-71
2023/09/10 12:46:12;;;;;;;8.77;4.15;;;12.70;71.70;;;;;;6306444;22;20010;-71
2023/09/10 12:48:39;;;;;;;9.65;4.05;;;12.70;72.20;;;;;;6279503;22;20014;-71
2023/09/10 12:51:06;;;;;;;10.00;4.18;;;12.70;72.20;;;;;;6306249;22;20002;-71
2023/09/10 12:53:35;;;;;;;11.32;4.35;;;12.70;72.30;;;;;;6278050;22;20003;-70
2023/09/10 12:56:02;;;;;;;8.75;5.20;;;12.70;72.40;;;;;;6254329;22;20015;-71
2023/09/10 12:58:30;;;;;;;14.00;5.53;;;12.70;72.70;;;;;;6306177;22;20045;-71
2023/09/10 13:00:58;;;;;;;14.15;7.57;;;12.60;72.60;;;;;;6254221;22;20022;-71
2023/09/10 13:03:25;;;;;;;14.57;7.75;;;12.60;72.40;;;;;;6305881;22;20003;-71
2023/09/10 13:05:52;;;;;;;19.65;9.35;;;12.60;72.50;;;;;;6279276;22;20346;-71
2023/09/10 13:08:20;;;;;;;17.70;8.98;;;12.60;72.30;;;;;;6253605;22;20000;-71
2023/09/10 13:10:47;;;;;;;17.58;9.75;;;12.60;72.60;;;;;;6279409;22;20014;-71
2023/09/10 13:13:15;;;;;;;20.33;9.77;;;12.60;73.60;;;;;;6305492;22;20011;-72
2023/09/10 13:15:42;;;;;;;26.27;13.57;;;12.50;73.60;;;;;;6305170;22;20011;-71
2023/09/10 13:18:09;;;;;;;22.45;12.27;;;12.50;72.80;;;;;;6305880;22;20094;-71
2023/09/10 13:20:37;;;;;;;22.55;12.55;;;12.40;72.70;;;;;;6278559;22;20099;-71
2023/09/10 13:23:04;;;;;;;18.88;10.73;;;12.40;73.10;;;;;;6306409;22;20335;-71
2023/09/10 13:25:31;;;;;;;20.20;10.82;;;12.30;73.40;;;;;;6306657;22;19999;-71
2023/09/10 13:27:59;;;;;;;19.65;12.32;;;12.30;73.40;;;;;;6278334;22;20068;-71
2023/09/10 13:30:26;;;;;;;20.10;12.25;;;12.30;73.50;;;;;;6305818;22;20056;-71
2023/09/10 13:32:53;;;;;;;24.02;13.35;;;12.20;74.20;;;;;;6306455;22;19999;-71
2023/09/10 13:35:24;;;;;;;28.48;13.70;;;12.20;74.00;;;;;;6305699;22;20337;-71
2023/09/10 13:37:51;;;;;;;24.85;14.77;;;12.10;74.10;;;;;;6305986;22;20059;-71
2023/09/10 13:40:19;;;;;;;26.92;14.80;;;12.10;74.20;;;;;;6306115;22;20045;-71
2023/09/10 13:42:48;;;;;;;28.38;16.98;;;12.10;74.20;;;;;;6306065;22;19995;-71
2023/09/10 13:45:15;;;;;;;31.35;18.45;;;12.10;74.80;;;;;;6306513;22;20102;-72
2023/09/10 13:47:43;;;;;;;36.80;18.83;;;12.00;74.90;;;;;;6279334;22;19999;-70
2023/09/10 13:50:11;;;;;;;38.08;21.92;;;12.00;75.20;;;;;;6278625;22;20494;-70
2023/09/10 13:52:42;;;;;;;43.60;25.08;;;12.00;75.20;;;;;;6306222;22;20003;-71
2023/09/10 13:55:10;;;;;;;43.97;28.08;;;12.10;75.30;;;;;;6305665;22;20018;-71
2023/09/10 13:57:37;;;;;;;52.05;32.65;;;12.00;75.50;;;;;;6278678;22;20070;-70
2023/09/10 14:00:06;;;;;;;57.83;35.47;;;12.00;75.80;;;;;;6278927;22;20003;-71
2023/09/10 14:02:36;;;;;;;68.28;40.65;;;11.90;76.50;;;;;;6254014;22;20003;-71
2023/09/10 14:05:09;;;;;;;65.40;39.97;;;11.90;76.70;;;;;;6306430;22;20003;-70
2023/09/10 14:07:37;;;;;;;72.10;41.90;;;11.90;77.30;;;;;;6279682;22;20062;-70
2023/09/10 14:10:04;;;;;;;69.80;41.63;;;11.80;77.40;;;;;;6278884;22;20007;-70
2023/09/10 14:12:31;;;;;;;73.82;41.97;;;11.70;77.20;;;;;;6305818;22;20038;-70
2023/09/10 14:14:59;;;;;;;69.70;40.80;;;11.80;77.30;;;;;;6306202;22;20014;-70
2023/09/10 14:17:27;;;;;;;75.65;43.53;;;11.80;77.30;;;;;;6305563;22;20023;-70
2023/09/10 14:19:54;;;;;;;64.63;40.55;;;11.80;77.50;;;;;;6306004;22;20025;-70
2023/09/10 14:22:21;;;;;;;72.97;40.58;;;11.80;77.60;;;;;;6279184;22;20099;-70
2023/09/10 14:24:49;;;;;;;65.30;39.42;;;11.80;77.70;;;;;;6305255;22;20098;-71
2023/09/10 14:27:16;;;;;;;63.13;39.30;;;11.70;77.70;;;;;;6279402;22;20000;-70
2023/09/10 14:29:43;;;;;;;62.78;37.63;;;11.80;77.70;;;;;;6307805;22;20007;-70
2023/09/10 14:32:10;;;;;;;66.68;37.92;;;11.80;77.60;;;;;;6307567;22;20584;-70
2023/09/10 14:34:38;;;;;;;65.72;39.92;;;11.80;77.60;;;;;;6280595;22;20038;-71
2023/09/10 14:37:05;;;;;;;73.50;41.78;;;11.80;77.50;;;;;;6308013;22;20027;-71
2023/09/10 14:39:32;;;;;;;72.50;41.67;;;11.80;77.40;;;;;;6307776;22;20006;-71
2023/09/10 14:42:00;;;;;;;69.35;41.50;;;11.90;77.50;;;;;;6307536;22;20074;-71
2023/09/10 14:44:27;;;;;;;73.10;44.38;;;11.80;77.20;;;;;;6307082;22;20031;-71
2023/09/10 14:46:54;;;;;;;80.88;45.88;;;11.80;77.60;;;;;;6308006;22;19999;-70
2023/09/10 14:49:21;;;;;;;73.15;45.33;;;11.70;77.50;;;;;;6280808;22;20018;-71
2023/09/10 14:51:48;;;;;;;90.53;52.60;;;11.70;77.90;;;;;;6306953;22;20000;-71
2023/09/10 14:54:16;;;;;;;90.82;54.28;;;11.70;77.90;;;;;;6308031;22;20018;-71
2023/09/10 14:56:43;;;;;;;128.75;76.72;;;11.70;78.00;;;;;;6307736;22;20003;-71
2023/09/10 14:59:10;;;;;;;199.40;117.82;;;11.70;77.70;;;;;;6307813;22;20334;-71
2023/09/10 15:01:37;;;;;;;195.38;112.25;;;11.60;77.40;;;;;;6308224;22;20007;-71
2023/09/10 15:23:31;;;;;;;212.82;126.70;;;11.40;78.30;;;;;;6287660;22;20050;-71
2023/09/10 15:25:58;;;;;;;229.75;138.27;;;11.40;78.60;;;;;;6276570;22;20327;-71
2023/09/10 15:28:25;;;;;;;226.23;134.48;;;11.30;78.30;;;;;;6276600;22;20011;-71
2023/09/10 15:30:52;;;;;;;222.85;134.73;;;11.20;78.30;;;;;;6275995;22;19995;-71
2023/09/10 15:33:20;;;;;;;243.38;143.63;;;11.20;78.30;;;;;;6275604;22;20006;-70
2023/09/10 15:35:47;;;;;;;257.20;152.07;;;11.20;78.30;;;;;;6275786;22;20335;-71
2023/09/10 15:38:14;;;;;;;262.08;157.35;;;11.20;78.30;;;;;;6275953;22;20006;-70
2023/09/10 15:40:41;;;;;;;262.17;157.35;;;11.20;78.30;;;;;;6276216;22;20388;-71
2023/09/10 15:43:08;;;;;;;258.52;156.85;;;11.20;78.10;;;;;;6275966;22;20083;-71
2023/09/10 15:45:39;;;;;;;252.45;151.35;;;11.20;78.10;;;;;;6276129;22;20335;-71
2023/09/10 15:48:06;;;;;;;242.13;147.00;;;11.20;78.20;;;;;;6276086;22;20007;-71
2023/09/10 15:50:37;;;;;;;237.65;142.52;;;11.20;78.40;;;;;;6276163;22;19999;-71
2023/09/10 15:53:04;;;;;;;222.60;131.40;;;11.20;78.50;;;;;;6276053;22;20111;-71
2023/09/10 15:55:32;;;;;;;220.63;126.88;;;11.20;78.30;;;;;;6249346;22;20026;-71
2023/09/10 15:57:59;;;;;;;199.15;118.03;;;11.20;78.10;;;;;;6276474;22;20067;-70
2023/09/10 16:00:26;;;;;;;190.70;113.50;;;11.20;77.90;;;;;;6249470;22;20038;-71
2023/09/10 16:02:53;;;;;;;188.02;110.18;;;11.20;78.50;;;;;;6276059;22;20082;-71
2023/09/10 16:05:20;;;;;;;179.15;106.25;;;11.10;77.90;;;;;;6274892;22;20067;-71
2023/09/10 16:07:48;;;;;;;169.93;103.78;;;11.10;77.60;;;;;;6274891;22;20075;-71
2023/09/10 16:10:15;;;;;;;171.43;100.40;;;11.00;78.00;;;;;;6275570;22;20004;-71
2023/09/10 16:12:42;;;;;;;167.05;97.90;;;10.90;78.10;;;;;;6275499;22;20041;-70
2023/09/10 16:15:10;;;;;;;150.27;91.00;;;11.00;78.10;;;;;;6248927;22;20098;-70
2023/09/10 16:17:37;;;;;;;144.63;87.05;;;11.00;78.00;;;;;;6275359;22;20004;-70
2023/09/10 16:20:05;;;;;;;131.75;77.75;;;11.00;77.90;;;;;;6276104;22;20007;-70
2023/09/10 16:22:34;;;;;;;132.38;76.22;;;10.90;77.50;;;;;;6275498;22;20011;-70
2023/09/10 16:25:02;;;;;;;127.22;76.32;;;10.90;77.70;;;;;;6276088;22;20520;-70
2023/09/10 16:27:29;;;;;;;119.78;72.57;;;10.80;77.90;;;;;;6276047;22;20023;-70
2023/09/10 16:29:56;;;;;;;102.28;60.55;;;10.80;78.00;;;;;;6275912;22;19999;-70
2023/09/10 16:32:24;;;;;;;94.90;56.65;;;10.80;77.80;;;;;;6276188;22;19999;-70
2023/09/10 16:34:51;;;;;;;82.72;49.72;;;10.70;77.80;;;;;;6275425;22;20003;-70
2023/09/10 16:37:18;;;;;;;86.53;50.53;;;10.70;77.80;;;;;;6276020;22;20007;-70
2023/09/10 16:39:45;;;;;;;83.43;50.55;;;10.70;78.00;;;;;;6275909;22;20004;-70
2023/09/10 16:42:13;;;;;;;90.75;51.40;;;10.70;78.10;;;;;;6275794;22;20027;-70
2023/09/10 16:44:40;;;;;;;85.63;50.50;;;10.70;78.40;;;;;;6249072;22;20058;-70
2023/09/10 16:47:07;;;;;;;76.90;45.58;;;10.70;78.40;;;;;;6275986;22;20003;-70
2023/09/10 16:49:34;;;;;;;64.00;40.58;;;10.70;78.60;;;;;;6274849;22;20008;-70
2023/09/10 16:52:01;;;;;;;60.15;35.40;;;10.70;78.60;;;;;;6274078;22;20003;-70
2023/09/10 16:54:29;;;;;;;61.00;34.17;;;10.60;78.60;;;;;;6274952;22;20007;-70
2023/09/10 16:56:56;;;;;;;57.30;33.88;;;10.60;78.60;;;;;;6275551;22;19995;-70
2023/09/10 16:59:23;;;;;;;50.08;29.92;;;10.50;78.40;;;;;;6275019;22;20406;-70
2023/09/10 17:01:50;;;;;;;47.15;28.13;;;10.50;78.30;;;;;;6275605;22;20000;-70
2023/09/10 17:04:18;;;;;;;47.65;26.42;;;10.50;78.40;;;;;;6248577;22;20008;-70
2023/09/10 17:06:45;;;;;;;42.47;24.63;;;10.40;78.70;;;;;;6275802;22;20037;-69
2023/09/10 17:09:13;;;;;;;41.22;22.42;;;10.60;78.90;;;;;;6275566;22;20418;-70
2023/09/10 17:11:40;;;;;;;35.90;19.35;;;10.50;78.80;;;;;;6275221;22;20058;-70
2023/09/10 17:14:07;;;;;;;32.00;17.75;;;10.50;79.10;;;;;;6275186;22;20007;-70
2023/09/10 17:16:34;;;;;;;31.33;17.42;;;10.50;78.90;;;;;;6275456;22;20441;-70
2023/09/10 17:19:03;;;;;;;30.95;14.90;;;10.40;78.80;;;;;;6275177;22;20003;-70
2023/09/10 17:21:30;;;;;;;21.90;13.45;;;10.50;78.60;;;;;;6275125;22;20014;-70
2023/09/10 17:24:00;;;;;;;21.98;12.77;;;10.50;78.60;;;;;;6274830;22;20319;-70
2023/09/10 17:26:28;;;;;;;21.00;12.98;;;10.50;78.60;;;;;;6275538;22;20435;-70
2023/09/10 17:28:56;;;;;;;22.05;11.88;;;10.50;78.60;;;;;;6275381;22;20011;-70
2023/09/10 17:31:23;;;;;;;23.02;12.25;;;10.50;78.70;;;;;;6275158;22;20422;-70
2023/09/10 17:33:50;;;;;;;17.80;10.95;;;10.50;78.80;;;;;;6275516;22;20060;-70
2023/09/10 17:36:17;;;;;;;19.27;11.02;;;10.40;78.80;;;;;;6275425;22;20423;-70
2023/09/10 17:38:46;;;;;;;19.73;10.48;;;10.40;79.10;;;;;;6274488;22;20081;-70
2023/09/10 17:41:14;;;;;;;17.30;9.95;;;10.30;78.90;;;;;;6274696;22;19999;-70
2023/09/10 17:43:42;;;;;;;15.40;9.52;;;10.30;78.90;;;;;;6275842;22;19999;-70
2023/09/10 17:46:10;;;;;;;16.48;9.02;;;10.40;78.90;;;;;;6275346;22;20008;-70
2023/09/10 17:48:38;;;;;;;14.38;8.48;;;10.40;78.70;;;;;;6274986;22;20000;-70
2023/09/10 17:51:05;;;;;;;13.30;8.20;;;10.40;78.50;;;;;;6274946;22;20075;-70
2023/09/10 17:53:33;;;;;;;14.98;8.85;;;10.40;78.50;;;;;;6223163;22;20308;-70
2023/09/10 17:56:00;;;;;;;14.50;7.70;;;10.30;78.50;;;;;;6248623;22;20008;-70
2023/09/10 17:58:27;;;;;;;15.07;7.43;;;10.30;78.50;;;;;;6274975;22;20007;-70
2023/09/10 18:00:55;;;;;;;14.73;7.93;;;10.30;78.70;;;;;;6248342;22;20004;-70
2023/09/10 18:03:22;;;;;;;14.38;7.63;;;10.30;78.90;;;;;;6249903;22;20435;-70
2023/09/10 18:05:49;;;;;;;15.20;7.45;;;10.30;78.80;;;;;;6276986;22;20046;-70
2023/09/10 18:08:16;;;;;;;15.85;7.50;;;10.20;78.80;;;;;;6277240;22;20003;-70
2023/09/10 18:10:44;;;;;;;11.63;6.82;;;10.30;78.60;;;;;;6276241;22;20026;-70
2023/09/10 18:13:11;;;;;;;13.48;7.20;;;10.30;78.30;;;;;;6276810;22;20042;-70
2023/09/10 18:15:38;;;;;;;11.80;6.25;;;10.30;78.80;;;;;;6276721;22;20422;-70
2023/09/10 18:18:05;;;;;;;13.43;5.60;;;10.20;78.40;;;;;;6276214;22;20011;-70
2023/09/10 18:20:32;;;;;;;12.07;6.65;;;10.20;78.30;;;;;;6276201;22;19999;-70
2023/09/10 18:23:00;;;;;;;11.85;6.45;;;10.20;78.20;;;;;;6276492;22;20016;-72
2023/09/10 18:25:27;;;;;;;12.50;6.22;;;10.20;78.30;;;;;;6277090;22;20031;-71
2023/09/10 18:27:54;;;;;;;10.77;6.35;;;10.20;78.60;;;;;;6276781;22;20323;-70
2023/09/10 18:30:24;;;;;;;13.13;6.15;;;10.10;78.70;;;;;;6276275;22;20002;-70
2023/09/10 18:32:51;;;;;;;10.77;6.10;;;10.10;78.70;;;;;;6250993;22;20110;-70
2023/09/10 18:35:19;;;;;;;14.80;6.78;;;10.20;78.90;;;;;;6276032;22;20012;-70
2023/09/10 18:37:47;;;;;;;13.45;6.60;;;10.10;79.00;;;;;;6276248;22;20030;-70
2023/09/10 18:40:14;;;;;;;16.38;6.55;;;10.10;78.80;;;;;;6276175;22;20003;-70
2023/09/10 18:42:44;;;;;;;13.15;6.45;;;10.10;78.90;;;;;;6276582;22;20007;-70
2023/09/10 20:42:07;;;;;;;17.13;11.05;;;10.10;79.10;;;;;;6291068;22;20103;-70
2023/09/10 20:44:34;;;;;;;19.30;10.85;;;10.20;78.60;;;;;;6275622;22;20012;-70
2023/09/10 20:47:01;;;;;;;21.15;11.07;;;10.20;78.20;;;;;;6275725;22;20004;-70
2023/09/10 20:49:30;;;;;;;20.33;11.27;;;10.20;78.30;;;;;;6275736;22;20066;-70
2023/09/10 20:51:57;;;;;;;13.82;9.48;;;10.20;78.30;;;;;;6275007;22;20031;-70
2023/09/10 20:54:24;;;;;;;18.55;11.20;;;10.20;77.70;;;;;;6248186;22;20075;-70
2023/09/10 20:56:51;;;;;;;14.57;10.25;;;10.30;78.30;;;;;;6275432;22;20334;-69
2023/09/10 20:59:19;;;;;;;17.45;10.07;;;10.30;77.50;;;;;;6275223;22;20003;-69
2023/09/10 21:01:46;;;;;;;15.52;10.15;;;10.40;77.60;;;;;;6274204;22;20008;-69
2023/09/10 21:04:13;;;;;;;18.98;10.60;;;10.40;77.20;;;;;;6275117;22;20098;-69
2023/09/10 21:06:41;;;;;;;15.95;9.68;;;10.40;77.10;;;;;;6247874;22;20397;-69
2023/09/10 21:09:08;;;;;;;18.95;10.18;;;10.50;76.40;;;;;;6248126;22;20027;-69
2023/09/10 21:11:35;;;;;;;20.35;9.50;;;10.60;76.70;;;;;;6275036;22;20069;-70
2023/09/10 21:14:04;;;;;;;14.70;9.52;;;10.60;76.40;;;;;;6248255;22;20007;-69
2023/09/10 21:16:32;;;;;;;13.13;8.93;;;10.70;76.20;;;;;;6274798;22;20016;-69
2023/09/10 21:19:00;;;;;;;16.67;9.70;;;10.70;76.40;;;;;;6274696;22;20050;-70
2023/09/10 21:21:27;;;;;;;18.80;10.10;;;10.80;75.60;;;;;;6274989;22;20010;-70
2023/09/10 21:23:55;;;;;;;13.48;8.77;;;10.90;75.20;;;;;;6275048;22;20003;-69
2023/09/10 21:26:23;;;;;;;12.77;8.40;;;10.90;75.20;;;;;;6275008;22;20015;-70
2023/09/10 21:28:50;;;;;;;13.02;8.30;;;11.00;74.80;;;;;;6274912;22;20000;-70
2023/09/10 21:31:17;;;;;;;12.70;8.40;;;11.10;74.90;;;;;;6275105;22;20027;-69
2023/09/10 21:33:44;;;;;;;16.02;8.23;;;11.10;74.20;;;;;;6275497;22;20027;-70
2023/09/10 21:36:11;;;;;;;12.43;7.78;;;11.10;74.30;;;;;;6275499;22;20012;-69
2023/09/10 21:38:39;;;;;;;12.02;7.90;;;11.20;74.00;;;;;;6277077;22;20008;-70
